sensor_id;sensor_type;location;lat;lon;timestamp;P1;durP1;ratioP1;P2;durP2;ratioP2
21663;SDS011;10993;52.510;13.456;2024-03-02T00:01:11;62.35;;;35.20;;
21663;SDS011;10993;52.510;13.456;2024-03-02T00:06:12;61.08;;;33.22;;
21663;SDS011;10993;52.510;13.456;2024-03-02T00:11:12;71.50;;;34.20;;
21663;SDS011;10993;52.510;13.456;2024-03-02T00:16:16;63.78;;;33.90;;
21663;SDS011;10993;52.510;13.456;2024-03-02T00:21:18;67.40;;;32.65;;
21663;SDS011;10993;52.510;13.456;2024-03-02T00:26:21;66.45;;;35.65;;
21663;SDS011;10993;52.510;13.456;2024-03-02T00:31:25;66.22;;;35.10;;
21663;SDS011;10993;52.510;13.456;2024-03-02T00:36:26;58.47;;;33.20;;
21663;SDS011;10993;52.510;13.456;2024-03-02T00:41:29;62.88;;;34.60;;
21663;SDS011;10993;52.510;13.456;2024-03-02T00:46:32;60.13;;;34.42;;
21663;SDS011;10993;52.510;13.456;2024-03-02T00:51:34;62.78;;;33.67;;
21663;SDS011;10993;52.510;13.456;2024-03-02T00:56:35;68.00;;;34.35;;
21663;SDS011;10993;52.510;13.456;2024-03-02T01:01:37;73.22;;;34.90;;
21663;SDS011;10993;52.510;13.456;2024-03-02T01:06:37;70.30;;;37.05;;
21663;SDS011;10993;52.510;13.456;2024-03-02T01:11:38;70.45;;;35.22;;
21663;SDS011;10993;52.510;13.456;2024-03-02T01:16:40;68.72;;;36.28;;
21663;SDS011;10993;52.510;13.456;2024-03-02T01:21:40;68.57;;;37.38;;
21663;SDS011;10993;52.510;13.456;2024-03-02T01:26:40;73.60;;;37.90;;
21663;SDS011;10993;52.510;13.456;2024-03-02T01:31:42;66.65;;;34.63;;
21663;SDS011;10993;52.510;13.456;2024-03-02T01:36:42;69.63;;;37.30;;
21663;SDS011;10993;52.510;13.456;2024-03-02T01:41:43;70.20;;;37.65;;
21663;SDS011;10993;52.510;13.456;2024-03-02T01:46:44;70.35;;;37.13;;
21663;SDS011;10993;52.510;13.456;2024-03-02T01:51:44;68.68;;;37.03;;
21663;SDS011;10993;52.510;13.456;2024-03-02T01:56:46;71.90;;;37.55;;
21663;SDS011;10993;52.510;13.456;2024-03-02T02:01:47;69.05;;;37.97;;
21663;SDS011;10993;52.510;13.456;2024-03-02T02:06:49;71.93;;;37.50;;
21663;SDS011;10993;52.510;13.456;2024-03-02T02:11:49;71.55;;;37.88;;
21663;SDS011;10993;52.510;13.456;2024-03-02T02:16:51;70.93;;;37.25;;
21663;SDS011;10993;52.510;13.456;2024-03-02T02:21:53;75.50;;;38.80;;
21663;SDS011;10993;52.510;13.456;2024-03-02T02:26:54;79.55;;;39.33;;
21663;SDS011;10993;52.510;13.456;2024-03-02T02:31:54;71.57;;;38.35;;
21663;SDS011;10993;52.510;13.456;2024-03-02T02:36:56;68.47;;;36.83;;
21663;SDS011;10993;52.510;13.456;2024-03-02T02:41:56;72.47;;;38.67;;
21663;SDS011;10993;52.510;13.456;2024-03-02T02:46:57;71.93;;;37.05;;
21663;SDS011;10993;52.510;13.456;2024-03-02T02:51:58;79.00;;;38.08;;
21663;SDS011;10993;52.510;13.456;2024-03-02T02:56:59;69.75;;;37.10;;
21663;SDS011;10993;52.510;13.456;2024-03-02T03:01:59;68.75;;;36.10;;
21663;SDS011;10993;52.510;13.456;2024-03-02T03:07:01;75.22;;;39.17;;
21663;SDS011;10993;52.510;13.456;2024-03-02T03:12:01;68.50;;;36.47;;
21663;SDS011;10993;52.510;13.456;2024-03-02T03:17:02;71.93;;;36.42;;
21663;SDS011;10993;52.510;13.456;2024-03-02T03:22:04;68.80;;;37.42;;
21663;SDS011;10993;52.510;13.456;2024-03-02T03:27:04;69.85;;;37.05;;
21663;SDS011;10993;52.510;13.456;2024-03-02T03:32:05;81.00;;;36.38;;
21663;SDS011;10993;52.510;13.456;2024-03-02T03:37:08;71.18;;;36.40;;
21663;SDS011;10993;52.510;13.456;2024-03-02T03:42:10;66.85;;;35.05;;
21663;SDS011;10993;52.510;13.456;2024-03-02T03:47:10;66.40;;;34.90;;
21663;SDS011;10993;52.510;13.456;2024-03-02T03:52:12;67.57;;;36.10;;
21663;SDS011;10993;52.510;13.456;2024-03-02T03:57:12;68.38;;;35.83;;
21663;SDS011;10993;52.510;13.456;2024-03-02T04:02:12;68.57;;;35.67;;
21663;SDS011;10993;52.510;13.456;2024-03-02T04:07:14;74.20;;;35.92;;
21663;SDS011;10993;52.510;13.456;2024-03-02T04:12:14;71.78;;;35.05;;
21663;SDS011;10993;52.510;13.456;2024-03-02T04:17:15;69.85;;;35.78;;
21663;SDS011;10993;52.510;13.456;2024-03-02T04:22:17;65.45;;;33.38;;
21663;SDS011;10993;52.510;13.456;2024-03-02T04:27:17;65.22;;;32.80;;
21663;SDS011;10993;52.510;13.456;2024-03-02T04:32:17;64.55;;;33.20;;
21663;SDS011;10993;52.510;13.456;2024-03-02T04:37:20;59.20;;;31.30;;
21663;SDS011;10993;52.510;13.456;2024-03-02T04:42:21;59.35;;;31.33;;
21663;SDS011;10993;52.510;13.456;2024-03-02T04:47:22;57.70;;;31.63;;
21663;SDS011;10993;52.510;13.456;2024-03-02T04:52:24;64.85;;;31.63;;
21663;SDS011;10993;52.510;13.456;2024-03-02T04:57:24;60.15;;;31.58;;
21663;SDS011;10993;52.510;13.456;2024-03-02T05:02:25;64.97;;;32.13;;
21663;SDS011;10993;52.510;13.456;2024-03-02T05:07:26;62.40;;;32.47;;
21663;SDS011;10993;52.510;13.456;2024-03-02T05:12:27;58.30;;;30.88;;
21663;SDS011;10993;52.510;13.456;2024-03-02T05:17:42;61.03;;;32.45;;
21663;SDS011;10993;52.510;13.456;2024-03-02T05:22:47;58.58;;;31.85;;
21663;SDS011;10993;52.510;13.456;2024-03-02T05:27:48;53.65;;;30.52;;
21663;SDS011;10993;52.510;13.456;2024-03-02T05:32:48;57.92;;;31.02;;
21663;SDS011;10993;52.510;13.456;2024-03-02T05:37:50;56.30;;;30.48;;
21663;SDS011;10993;52.510;13.456;2024-03-02T05:42:50;60.35;;;31.75;;
21663;SDS011;10993;52.510;13.456;2024-03-02T05:47:51;60.95;;;30.33;;
21663;SDS011;10993;52.510;13.456;2024-03-02T05:52:52;63.92;;;32.15;;
21663;SDS011;10993;52.510;13.456;2024-03-02T05:57:53;59.25;;;31.45;;
21663;SDS011;10993;52.510;13.456;2024-03-02T06:03:13;62.60;;;32.72;;
21663;SDS011;10993;52.510;13.456;2024-03-02T06:08:15;67.53;;;34.20;;
21663;SDS011;10993;52.510;13.456;2024-03-02T06:13:15;71.55;;;36.72;;
21663;SDS011;10993;52.510;13.456;2024-03-02T06:18:15;66.55;;;34.67;;
21663;SDS011;10993;52.510;13.456;2024-03-02T06:23:17;68.38;;;35.22;;
21663;SDS011;10993;52.510;13.456;2024-03-02T06:28:18;65.05;;;34.85;;
21663;SDS011;10993;52.510;13.456;2024-03-02T06:33:18;68.78;;;34.88;;
21663;SDS011;10993;52.510;13.456;2024-03-02T06:38:20;66.85;;;34.88;;
21663;SDS011;10993;52.510;13.456;2024-03-02T06:43:20;68.45;;;35.63;;
21663;SDS011;10993;52.510;13.456;2024-03-02T06:48:23;60.72;;;33.45;;
21663;SDS011;10993;52.510;13.456;2024-03-02T06:53:25;77.13;;;37.55;;
21663;SDS011;10993;52.510;13.456;2024-03-02T06:58:26;73.53;;;35.53;;
21663;SDS011;10993;52.510;13.456;2024-03-02T07:03:26;70.18;;;36.42;;
21663;SDS011;10993;52.510;13.456;2024-03-02T07:08:28;70.28;;;34.92;;
21663;SDS011;10993;52.510;13.456;2024-03-02T07:13:28;73.10;;;35.67;;
21663;SDS011;10993;52.510;13.456;2024-03-02T07:18:28;67.25;;;35.67;;
21663;SDS011;10993;52.510;13.456;2024-03-02T07:23:30;72.90;;;36.83;;
21663;SDS011;10993;52.510;13.456;2024-03-02T07:28:31;68.20;;;35.13;;
21663;SDS011;10993;52.510;13.456;2024-03-02T07:33:32;68.85;;;33.72;;
21663;SDS011;10993;52.510;13.456;2024-03-02T07:38:34;68.65;;;34.13;;
21663;SDS011;10993;52.510;13.456;2024-03-02T07:43:35;63.70;;;33.50;;
21663;SDS011;10993;52.510;13.456;2024-03-02T07:48:35;66.47;;;34.47;;
21663;SDS011;10993;52.510;13.456;2024-03-02T07:53:37;67.97;;;34.30;;
21663;SDS011;10993;52.510;13.456;2024-03-02T07:58:37;74.05;;;36.92;;
21663;SDS011;10993;52.510;13.456;2024-03-02T08:03:38;62.75;;;34.03;;
21663;SDS011;10993;52.510;13.456;2024-03-02T08:08:40;66.65;;;34.45;;
21663;SDS011;10993;52.510;13.456;2024-03-02T08:13:40;61.97;;;34.58;;
21663;SDS011;10993;52.510;13.456;2024-03-02T08:18:40;58.05;;;32.03;;
21663;SDS011;10993;52.510;13.456;2024-03-02T08:23:43;62.15;;;31.17;;
21663;SDS011;10993;52.510;13.456;2024-03-02T08:28:43;59.70;;;33.10;;
21663;SDS011;10993;52.510;13.456;2024-03-02T08:33:44;56.88;;;30.90;;
21663;SDS011;10993;52.510;13.456;2024-03-02T08:38:45;56.33;;;30.75;;
21663;SDS011;10993;52.510;13.456;2024-03-02T08:43:46;53.38;;;29.60;;
21663;SDS011;10993;52.510;13.456;2024-03-02T08:48:46;52.25;;;29.15;;
21663;SDS011;10993;52.510;13.456;2024-03-02T08:53:48;54.38;;;29.02;;
21663;SDS011;10993;52.510;13.456;2024-03-02T08:58:48;51.53;;;28.48;;
21663;SDS011;10993;52.510;13.456;2024-03-02T09:03:54;56.08;;;29.30;;
21663;SDS011;10993;52.510;13.456;2024-03-02T09:08:56;59.50;;;30.70;;
21663;SDS011;10993;52.510;13.456;2024-03-02T09:13:56;55.13;;;30.35;;
21663;SDS011;10993;52.510;13.456;2024-03-02T09:18:57;55.97;;;29.27;;
21663;SDS011;10993;52.510;13.456;2024-03-02T09:23:59;56.30;;;29.05;;
21663;SDS011;10993;52.510;13.456;2024-03-02T09:29:00;47.30;;;27.02;;
21663;SDS011;10993;52.510;13.456;2024-03-02T09:34:00;52.45;;;27.90;;
21663;SDS011;10993;52.510;13.456;2024-03-02T09:39:02;52.85;;;26.77;;
21663;SDS011;10993;52.510;13.456;2024-03-02T09:44:03;48.83;;;27.50;;
21663;SDS011;10993;52.510;13.456;2024-03-02T09:49:04;45.92;;;26.77;;
21663;SDS011;10993;52.510;13.456;2024-03-02T09:54:06;47.20;;;26.27;;
21663;SDS011;10993;52.510;13.456;2024-03-02T09:59:07;46.15;;;24.75;;
21663;SDS011;10993;52.510;13.456;2024-03-02T10:04:08;42.35;;;24.50;;
21663;SDS011;10993;52.510;13.456;2024-03-02T10:09:10;43.92;;;24.83;;
21663;SDS011;10993;52.510;13.456;2024-03-02T10:14:10;41.55;;;23.08;;
21663;SDS011;10993;52.510;13.456;2024-03-02T10:19:17;39.03;;;22.55;;
21663;SDS011;10993;52.510;13.456;2024-03-02T10:24:20;39.17;;;22.02;;
21663;SDS011;10993;52.510;13.456;2024-03-02T10:29:21;36.30;;;21.00;;
21663;SDS011;10993;52.510;13.456;2024-03-02T10:34:22;33.45;;;20.23;;
21663;SDS011;10993;52.510;13.456;2024-03-02T10:39:23;37.10;;;20.30;;
21663;SDS011;10993;52.510;13.456;2024-03-02T10:44:24;33.40;;;19.23;;
21663;SDS011;10993;52.510;13.456;2024-03-02T10:49:26;30.10;;;18.00;;
21663;SDS011;10993;52.510;13.456;2024-03-02T10:54:29;30.80;;;17.30;;
21663;SDS011;10993;52.510;13.456;2024-03-02T10:59:36;25.38;;;15.00;;
21663;SDS011;10993;52.510;13.456;2024-03-02T11:04:42;27.23;;;15.85;;
21663;SDS011;10993;52.510;13.456;2024-03-02T11:09:49;26.30;;;15.35;;
21663;SDS011;10993;52.510;13.456;2024-03-02T11:14:56;31.23;;;15.90;;
21663;SDS011;10993;52.510;13.456;2024-03-02T11:19:58;28.08;;;14.73;;
21663;SDS011;10993;52.510;13.456;2024-03-02T11:25:00;27.95;;;16.42;;
21663;SDS011;10993;52.510;13.456;2024-03-02T11:30:01;29.60;;;16.98;;
21663;SDS011;10993;52.510;13.456;2024-03-02T11:35:01;27.57;;;15.83;;
21663;SDS011;10993;52.510;13.456;2024-03-02T11:40:04;29.23;;;16.00;;
21663;SDS011;10993;52.510;13.456;2024-03-02T11:45:05;29.67;;;15.95;;
21663;SDS011;10993;52.510;13.456;2024-03-02T11:50:08;29.40;;;16.10;;
21663;SDS011;10993;52.510;13.456;2024-03-02T11:55:10;31.90;;;16.23;;
21663;SDS011;10993;52.510;13.456;2024-03-02T12:00:16;30.77;;;16.65;;
21663;SDS011;10993;52.510;13.456;2024-03-02T12:05:17;28.80;;;14.77;;
21663;SDS011;10993;52.510;13.456;2024-03-02T12:10:20;24.83;;;14.38;;
21663;SDS011;10993;52.510;13.456;2024-03-02T12:15:22;25.55;;;14.82;;
21663;SDS011;10993;52.510;13.456;2024-03-02T12:20:23;23.33;;;13.70;;
21663;SDS011;10993;52.510;13.456;2024-03-02T12:25:26;24.98;;;14.55;;
21663;SDS011;10993;52.510;13.456;2024-03-02T12:30:29;26.98;;;16.48;;
21663;SDS011;10993;52.510;13.456;2024-03-02T12:35:30;26.98;;;13.68;;
21663;SDS011;10993;52.510;13.456;2024-03-02T12:40:33;22.67;;;13.60;;
21663;SDS011;10993;52.510;13.456;2024-03-02T12:45:33;19.65;;;12.52;;
21663;SDS011;10993;52.510;13.456;2024-03-02T12:50:33;21.20;;;11.88;;
21663;SDS011;10993;52.510;13.456;2024-03-02T12:55:35;19.95;;;11.77;;
21663;SDS011;10993;52.510;13.456;2024-03-02T13:00:36;18.30;;;11.85;;
21663;SDS011;10993;52.510;13.456;2024-03-02T13:05:36;21.30;;;12.33;;
21663;SDS011;10993;52.510;13.456;2024-03-02T13:10:38;19.33;;;11.67;;
21663;SDS011;10993;52.510;13.456;2024-03-02T13:15:38;23.10;;;12.65;;
21663;SDS011;10993;52.510;13.456;2024-03-02T13:20:38;17.95;;;10.85;;
21663;SDS011;10993;52.510;13.456;2024-03-02T13:25:41;24.92;;;13.93;;
21663;SDS011;10993;52.510;13.456;2024-03-02T13:30:41;23.40;;;14.95;;
21663;SDS011;10993;52.510;13.456;2024-03-02T13:35:42;21.30;;;12.18;;
21663;SDS011;10993;52.510;13.456;2024-03-02T13:40:44;22.50;;;12.25;;
21663;SDS011;10993;52.510;13.456;2024-03-02T13:45:44;19.23;;;11.18;;
21663;SDS011;10993;52.510;13.456;2024-03-02T13:50:45;20.92;;;11.48;;
21663;SDS011;10993;52.510;13.456;2024-03-02T13:55:47;21.80;;;12.70;;
21663;SDS011;10993;52.510;13.456;2024-03-02T14:00:47;18.77;;;11.68;;
21663;SDS011;10993;52.510;13.456;2024-03-02T14:05:48;16.35;;;9.52;;
21663;SDS011;10993;52.510;13.456;2024-03-02T14:10:51;16.35;;;9.48;;
21663;SDS011;10993;52.510;13.456;2024-03-02T14:15:51;16.35;;;10.55;;
21663;SDS011;10993;52.510;13.456;2024-03-02T14:20:52;14.85;;;9.10;;
21663;SDS011;10993;52.510;13.456;2024-03-02T14:25:54;17.20;;;9.60;;
21663;SDS011;10993;52.510;13.456;2024-03-02T14:30:54;15.93;;;8.38;;
21663;SDS011;10993;52.510;13.456;2024-03-02T14:35:54;18.30;;;9.88;;
21663;SDS011;10993;52.510;13.456;2024-03-02T14:40:56;18.02;;;10.20;;
21663;SDS011;10993;52.510;13.456;2024-03-02T14:45:57;18.80;;;11.00;;
21663;SDS011;10993;52.510;13.456;2024-03-02T14:50:59;18.55;;;11.23;;
21663;SDS011;10993;52.510;13.456;2024-03-02T14:56:00;19.95;;;11.38;;
21663;SDS011;10993;52.510;13.456;2024-03-02T15:01:01;18.67;;;9.10;;
21663;SDS011;10993;52.510;13.456;2024-03-02T15:06:01;13.85;;;8.18;;
21663;SDS011;10993;52.510;13.456;2024-03-02T15:11:05;15.07;;;7.90;;
21663;SDS011;10993;52.510;13.456;2024-03-02T15:16:05;14.90;;;8.15;;
21663;SDS011;10993;52.510;13.456;2024-03-02T15:21:06;16.55;;;8.95;;
21663;SDS011;10993;52.510;13.456;2024-03-02T15:26:08;17.40;;;8.95;;
21663;SDS011;10993;52.510;13.456;2024-03-02T15:31:08;14.80;;;8.68;;
21663;SDS011;10993;52.510;13.456;2024-03-02T15:36:09;16.80;;;7.82;;
21663;SDS011;10993;52.510;13.456;2024-03-02T15:41:10;11.73;;;6.95;;
21663;SDS011;10993;52.510;13.456;2024-03-02T15:46:11;12.93;;;7.25;;
21663;SDS011;10993;52.510;13.456;2024-03-02T15:51:11;14.88;;;7.18;;
21663;SDS011;10993;52.510;13.456;2024-03-02T15:56:13;16.55;;;7.13;;
21663;SDS011;10993;52.510;13.456;2024-03-02T16:01:13;15.40;;;8.15;;
21663;SDS011;10993;52.510;13.456;2024-03-02T16:06:14;15.55;;;7.82;;
21663;SDS011;10993;52.510;13.456;2024-03-02T16:11:23;13.13;;;7.50;;
21663;SDS011;10993;52.510;13.456;2024-03-02T16:16:26;16.08;;;8.35;;
21663;SDS011;10993;52.510;13.456;2024-03-02T16:21:27;20.50;;;9.25;;
21663;SDS011;10993;52.510;13.456;2024-03-02T16:26:28;19.08;;;9.43;;
21663;SDS011;10993;52.510;13.456;2024-03-02T16:31:30;17.80;;;8.57;;
21663;SDS011;10993;52.510;13.456;2024-03-02T16:36:32;16.58;;;8.75;;
21663;SDS011;10993;52.510;13.456;2024-03-02T16:41:35;14.50;;;8.57;;
21663;SDS011;10993;52.510;13.456;2024-03-02T16:46:36;16.35;;;8.98;;
21663;SDS011;10993;52.510;13.456;2024-03-02T16:51:38;18.05;;;9.52;;
21663;SDS011;10993;52.510;13.456;2024-03-02T16:56:40;20.70;;;9.93;;
21663;SDS011;10993;52.510;13.456;2024-03-02T17:01:41;15.77;;;9.82;;
21663;SDS011;10993;52.510;13.456;2024-03-02T17:06:42;21.88;;;10.57;;
21663;SDS011;10993;52.510;13.456;2024-03-02T17:11:43;20.00;;;10.32;;
21663;SDS011;10993;52.510;13.456;2024-03-02T17:16:44;18.63;;;10.38;;
21663;SDS011;10993;52.510;13.456;2024-03-02T17:21:44;19.60;;;10.27;;
21663;SDS011;10993;52.510;13.456;2024-03-02T17:26:55;20.10;;;10.50;;
21663;SDS011;10993;52.510;13.456;2024-03-02T17:31:59;19.52;;;10.77;;
21663;SDS011;10993;52.510;13.456;2024-03-02T17:36:59;20.70;;;11.23;;
21663;SDS011;10993;52.510;13.456;2024-03-02T17:42:02;24.85;;;11.82;;
21663;SDS011;10993;52.510;13.456;2024-03-02T17:47:02;17.70;;;11.30;;
21663;SDS011;10993;52.510;13.456;2024-03-02T17:52:03;18.65;;;10.70;;
21663;SDS011;10993;52.510;13.456;2024-03-02T17:57:07;22.13;;;11.73;;
21663;SDS011;10993;52.510;13.456;2024-03-02T18:02:07;20.92;;;12.00;;
21663;SDS011;10993;52.510;13.456;2024-03-02T18:07:07;21.40;;;12.63;;
21663;SDS011;10993;52.510;13.456;2024-03-02T18:12:09;22.02;;;11.98;;
21663;SDS011;10993;52.510;13.456;2024-03-02T18:17:10;20.45;;;11.75;;
21663;SDS011;10993;52.510;13.456;2024-03-02T18:22:11;23.13;;;12.75;;
21663;SDS011;10993;52.510;13.456;2024-03-02T18:27:13;23.33;;;12.68;;
21663;SDS011;10993;52.510;13.456;2024-03-02T18:32:13;21.95;;;11.48;;
21663;SDS011;10993;52.510;13.456;2024-03-02T18:37:14;27.10;;;13.88;;
21663;SDS011;10993;52.510;13.456;2024-03-02T18:42:16;24.20;;;13.43;;
21663;SDS011;10993;52.510;13.456;2024-03-02T18:47:16;25.70;;;13.77;;
21663;SDS011;10993;52.510;13.456;2024-03-02T18:52:17;28.05;;;14.43;;
21663;SDS011;10993;52.510;13.456;2024-03-02T18:57:19;27.25;;;14.60;;
21663;SDS011;10993;52.510;13.456;2024-03-02T19:08:22;28.17;;;15.02;;
21663;SDS011;10993;52.510;13.456;2024-03-02T19:19:41;27.17;;;16.17;;
21663;SDS011;10993;52.510;13.456;2024-03-02T19:25:20;28.35;;;15.70;;
21663;SDS011;10993;52.510;13.456;2024-03-02T19:30:30;33.28;;;16.50;;
21663;SDS011;10993;52.510;13.456;2024-03-02T19:35:40;31.55;;;15.93;;
21663;SDS011;10993;52.510;13.456;2024-03-02T19:40:48;33.05;;;16.25;;
21663;SDS011;10993;52.510;13.456;2024-03-02T19:45:51;26.88;;;15.63;;
21663;SDS011;10993;52.510;13.456;2024-03-02T19:50:57;32.85;;;15.45;;
21663;SDS011;10993;52.510;13.456;2024-03-02T19:56:02;28.88;;;16.38;;
21663;SDS011;10993;52.510;13.456;2024-03-02T20:01:07;29.30;;;16.95;;
21663;SDS011;10993;52.510;13.456;2024-03-02T20:06:13;30.98;;;16.95;;
21663;SDS011;10993;52.510;13.456;2024-03-02T20:11:40;30.05;;;17.63;;
21663;SDS011;10993;52.510;13.456;2024-03-02T20:16:42;29.90;;;17.73;;
21663;SDS011;10993;52.510;13.456;2024-03-02T20:22:08;29.90;;;17.35;;
21663;SDS011;10993;52.510;13.456;2024-03-02T20:27:14;31.70;;;19.02;;
21663;SDS011;10993;52.510;13.456;2024-03-02T20:32:25;38.13;;;18.75;;
21663;SDS011;10993;52.510;13.456;2024-03-02T20:37:30;35.88;;;19.55;;
21663;SDS011;10993;52.510;13.456;2024-03-02T20:42:34;34.13;;;18.88;;
21663;SDS011;10993;52.510;13.456;2024-03-02T20:47:36;38.67;;;19.50;;
21663;SDS011;10993;52.510;13.456;2024-03-02T20:52:54;33.67;;;19.25;;
21663;SDS011;10993;52.510;13.456;2024-03-02T20:58:01;32.40;;;18.33;;
21663;SDS011;10993;52.510;13.456;2024-03-02T21:03:08;32.17;;;19.67;;
21663;SDS011;10993;52.510;13.456;2024-03-02T21:08:44;32.97;;;19.02;;
21663;SDS011;10993;52.510;13.456;2024-03-02T21:19:26;31.75;;;19.08;;
21663;SDS011;10993;52.510;13.456;2024-03-02T21:24:52;36.67;;;19.45;;
21663;SDS011;10993;52.510;13.456;2024-03-02T21:30:01;35.17;;;19.48;;
21663;SDS011;10993;52.510;13.456;2024-03-02T21:35:04;37.83;;;20.50;;
21663;SDS011;10993;52.510;13.456;2024-03-02T21:40:07;35.78;;;19.75;;
21663;SDS011;10993;52.510;13.456;2024-03-02T21:45:09;34.55;;;20.00;;
21663;SDS011;10993;52.510;13.456;2024-03-02T21:50:09;39.25;;;18.98;;
21663;SDS011;10993;52.510;13.456;2024-03-02T21:55:13;35.15;;;18.77;;
21663;SDS011;10993;52.510;13.456;2024-03-02T22:00:14;44.47;;;24.58;;
21663;SDS011;10993;52.510;13.456;2024-03-02T22:05:14;38.83;;;20.95;;
21663;SDS011;10993;52.510;13.456;2024-03-02T22:10:16;36.33;;;19.65;;
21663;SDS011;10993;52.510;13.456;2024-03-02T22:15:20;37.35;;;20.05;;
21663;SDS011;10993;52.510;13.456;2024-03-02T22:20:20;39.63;;;21.98;;
21663;SDS011;10993;52.510;13.456;2024-03-02T22:25:23;38.63;;;21.23;;
21663;SDS011;10993;52.510;13.456;2024-03-02T22:30:26;40.95;;;21.98;;
21663;SDS011;10993;52.510;13.456;2024-03-02T22:35:27;47.85;;;23.27;;
21663;SDS011;10993;52.510;13.456;2024-03-02T22:40:36;44.50;;;23.73;;
21663;SDS011;10993;52.510;13.456;2024-03-02T22:45:41;43.42;;;24.58;;
21663;SDS011;10993;52.510;13.456;2024-03-02T22:50:44;46.88;;;23.88;;
21663;SDS011;10993;52.510;13.456;2024-03-02T22:55:48;45.40;;;23.92;;
21663;SDS011;10993;52.510;13.456;2024-03-02T23:00:49;47.15;;;22.58;;
21663;SDS011;10993;52.510;13.456;2024-03-02T23:05:52;42.03;;;22.20;;
21663;SDS011;10993;52.510;13.456;2024-03-02T23:10:53;42.92;;;24.10;;
21663;SDS011;10993;52.510;13.456;2024-03-02T23:15:54;45.92;;;23.90;;
21663;SDS011;10993;52.510;13.456;2024-03-02T23:20:55;47.33;;;25.25;;
21663;SDS011;10993;52.510;13.456;2024-03-02T23:25:59;42.88;;;25.08;;
21663;SDS011;10993;52.510;13.456;2024-03-02T23:31:01;50.60;;;25.77;;
21663;SDS011;10993;52.510;13.456;2024-03-02T23:36:02;53.30;;;27.27;;
21663;SDS011;10993;52.510;13.456;2024-03-02T23:41:04;50.13;;;25.60;;
21663;SDS011;10993;52.510;13.456;2024-03-02T23:46:09;49.45;;;27.00;;
21663;SDS011;10993;52.510;13.456;2024-03-02T23:51:15;52.65;;;27.67;;
21663;SDS011;10993;52.510;13.456;2024-03-02T23:56:17;52.95;;;28.80;;
